createdAt,value
2018-06-18T00:00:19.545Z,5.30
2018-06-18T00:02:13.446Z,4.90
2018-06-18T00:03:12.758Z,4.80
2018-06-18T00:05:06.033Z,5.20
2018-06-18T00:06:05.971Z,5.20
2018-06-18T00:07:59.266Z,5.10
2018-06-18T00:08:59.185Z,4.90
2018-06-18T00:10:52.461Z,5.40
2018-06-18T00:11:52.398Z,6.00
2018-06-18T00:13:45.695Z,5.30
2018-06-18T00:14:45.617Z,5.20
2018-06-18T00:16:38.909Z,5.00
2018-06-18T00:17:38.827Z,5.60
2018-06-18T00:19:32.104Z,5.30
2018-06-18T00:20:32.040Z,5.30
2018-06-18T00:22:25.335Z,5.80
2018-06-18T00:23:25.255Z,5.50
2018-06-18T00:25:18.530Z,5.70
2018-06-18T00:26:18.465Z,5.70
2018-06-18T00:28:11.752Z,5.70
2018-06-18T00:29:11.671Z,6.30
2018-06-18T00:31:04.951Z,5.20
2018-06-18T00:32:04.886Z,5.80
2018-06-18T00:33:58.793Z,5.70
2018-06-18T00:34:58.097Z,5.90
2018-06-18T00:36:51.404Z,5.90
2018-06-18T00:37:51.311Z,6.20
2018-06-18T00:39:44.589Z,5.10
2018-06-18T00:40:44.525Z,5.30
2018-06-18T00:42:37.823Z,5.10
2018-06-18T00:43:37.741Z,5.30
2018-06-18T00:45:31.019Z,5.70
2018-06-18T00:46:30.959Z,5.50
2018-06-18T00:48:24.242Z,5.40
2018-06-18T00:49:24.161Z,5.20
2018-06-18T00:51:17.437Z,5.80
2018-06-18T00:52:17.376Z,5.60
2018-06-18T00:54:10.670Z,4.90
2018-06-18T00:55:10.590Z,5.00
2018-06-18T00:57:03.867Z,5.60
2018-06-18T00:58:03.804Z,5.50
2018-06-18T00:59:57.100Z,5.20
2018-06-18T01:00:57.018Z,5.30
2018-06-18T01:02:50.417Z,4.70
2018-06-18T01:03:50.269Z,4.80
2018-06-18T01:05:43.545Z,5.50
2018-06-18T01:06:43.484Z,5.10
2018-06-18T01:08:36.778Z,4.80
2018-06-18T01:09:36.697Z,5.20
2018-06-18T01:11:29.990Z,4.90
2018-06-18T01:12:29.913Z,5.10
2018-06-18T01:14:23.205Z,5.10
2018-06-18T01:15:23.125Z,5.20
2018-06-18T01:17:16.400Z,5.40
2018-06-18T01:18:16.342Z,5.60
2018-06-18T01:20:09.636Z,5.10
2018-06-18T01:21:09.551Z,5.00
2018-06-18T01:23:02.849Z,5.30
2018-06-18T01:24:02.769Z,5.30
2018-06-18T01:25:56.167Z,4.90
2018-06-18T01:26:55.980Z,4.90
2018-06-18T01:28:49.256Z,5.40
2018-06-18T01:29:49.194Z,4.60
2018-06-18T01:31:42.480Z,4.90
2018-06-18T01:32:42.398Z,5.20
2018-06-18T01:34:35.685Z,5.10
2018-06-18T01:35:35.603Z,5.10
2018-06-18T01:37:28.885Z,4.60
2018-06-18T01:38:28.818Z,4.70
2018-06-18T01:40:22.112Z,5.00
2018-06-18T01:41:22.034Z,4.90
2018-06-18T01:43:15.298Z,5.00
2018-06-18T01:44:15.237Z,5.00
2018-06-18T01:46:08.529Z,5.40
2018-06-18T01:47:08.451Z,4.80
2018-06-18T01:49:01.728Z,4.40
2018-06-18T01:50:01.665Z,5.10
2018-06-18T01:51:54.961Z,4.90
2018-06-18T01:52:54.878Z,4.90
2018-06-18T01:54:48.165Z,5.20
2018-06-18T01:55:48.083Z,5.00
2018-06-18T01:57:41.352Z,4.70
2018-06-18T01:58:41.289Z,4.60
2018-06-18T02:00:34.576Z,4.70
2018-06-18T02:01:34.495Z,4.80
2018-06-18T02:03:27.873Z,4.70
2018-06-18T02:04:27.706Z,4.60
2018-06-18T02:06:21.106Z,4.80
2018-06-18T02:07:20.921Z,4.50
2018-06-18T02:09:14.301Z,4.50
2018-06-18T02:10:14.135Z,4.90
2018-06-18T02:12:07.534Z,5.80
2018-06-18T02:13:07.345Z,6.20
2018-06-18T02:15:00.622Z,6.00
2018-06-18T02:16:00.558Z,5.90
2018-06-18T02:17:53.848Z,5.60
2018-06-18T02:18:53.765Z,5.50
2018-06-18T02:20:47.067Z,5.80
2018-06-18T02:21:46.981Z,5.80
2018-06-18T02:23:40.333Z,5.50
2018-06-18T02:24:40.270Z,5.40
2018-06-18T02:26:33.572Z,5.30
2018-06-18T02:27:33.484Z,5.80
2018-06-18T02:29:26.760Z,5.00
2018-06-18T02:30:26.697Z,5.20
2018-06-18T02:32:19.996Z,5.10
2018-06-18T02:33:19.911Z,4.80
2018-06-18T02:35:13.184Z,5.80
2018-06-18T02:36:13.123Z,5.30
2018-06-18T02:38:06.406Z,5.20
2018-06-18T02:39:06.323Z,5.60
2018-06-18T02:41:00.205Z,4.60
2018-06-18T02:41:59.527Z,5.00
2018-06-18T02:43:52.819Z,5.20
2018-06-18T02:44:52.739Z,4.90
2018-06-18T02:46:46.034Z,5.80
2018-06-18T02:47:45.949Z,5.30
2018-06-18T02:49:39.226Z,5.30
2018-06-18T02:50:39.162Z,5.20
2018-06-18T02:52:32.457Z,5.90
2018-06-18T02:53:32.374Z,5.60
2018-06-18T02:55:25.652Z,5.90
2018-06-18T02:56:25.593Z,6.30
2018-06-18T02:58:18.990Z,6.40
2018-06-18T02:59:18.794Z,6.20
2018-06-18T03:01:12.070Z,6.70
2018-06-18T03:02:12.008Z,7.10
2018-06-18T03:04:05.406Z,8.00
2018-06-18T03:05:05.221Z,8.80
2018-06-18T03:06:58.512Z,9.20
2018-06-18T03:07:58.430Z,9.90
2018-06-18T03:09:51.707Z,10.70
2018-06-18T03:10:51.641Z,10.90
2018-06-18T03:12:44.936Z,11.00
2018-06-18T03:13:44.854Z,11.10
2018-06-18T03:15:38.233Z,11.30
2018-06-18T03:16:38.061Z,10.50
2018-06-18T03:18:31.341Z,9.10
2018-06-18T03:19:31.263Z,8.80
2018-06-18T03:21:24.640Z,8.20
2018-06-18T03:22:24.472Z,7.50
2018-06-18T03:24:17.761Z,8.00
2018-06-18T03:25:17.676Z,8.70
2018-06-18T03:27:10.955Z,7.50
2018-06-18T03:28:10.887Z,7.70
2018-06-18T03:30:04.182Z,6.40
2018-06-18T03:31:04.100Z,7.70
2018-06-18T03:32:57.413Z,7.20
2018-06-18T03:33:57.313Z,7.20
2018-06-18T03:35:50.588Z,7.50
2018-06-18T03:36:50.527Z,6.70
2018-06-18T03:38:43.821Z,6.90
2018-06-18T03:39:43.740Z,7.60
2018-06-18T03:41:37.017Z,6.40
2018-06-18T03:42:36.954Z,6.80
2018-06-18T03:44:30.247Z,7.20
2018-06-18T03:45:30.166Z,6.70
2018-06-18T03:47:23.448Z,7.50
2018-06-18T03:48:23.383Z,6.80
2018-06-18T03:50:16.677Z,6.30
2018-06-18T03:51:16.595Z,6.10
2018-06-18T03:53:09.873Z,6.50
2018-06-18T03:54:09.810Z,6.40
2018-06-18T03:56:03.104Z,5.60
2018-06-18T03:57:03.023Z,6.10
2018-06-18T03:58:56.422Z,6.80
2018-06-18T03:59:56.268Z,5.70
2018-06-18T04:01:49.540Z,5.10
2018-06-18T04:02:49.472Z,5.20
2018-06-18T04:04:42.874Z,5.60
2018-06-18T04:05:42.686Z,5.60
2018-06-18T04:07:35.953Z,5.40
2018-06-18T04:08:35.889Z,5.50
2018-06-18T04:10:29.183Z,6.10
2018-06-18T04:11:29.101Z,5.10
2018-06-18T04:13:22.376Z,5.30
2018-06-18T04:14:22.314Z,5.50
2018-06-18T04:16:15.609Z,5.80
2018-06-18T04:17:15.525Z,6.10
2018-06-18T04:19:08.828Z,6.20
2018-06-18T04:20:08.739Z,6.90
2018-06-18T04:22:02.118Z,5.50
2018-06-18T04:23:01.954Z,5.40
2018-06-18T04:24:55.249Z,6.10
2018-06-18T04:25:55.166Z,6.00
2018-06-18T04:27:48.440Z,5.50
2018-06-18T04:28:48.375Z,5.70
2018-06-18T04:30:41.671Z,6.40
2018-06-18T04:31:41.586Z,5.80
2018-06-18T04:33:34.864Z,5.70
2018-06-18T04:34:34.805Z,5.90
2018-06-18T04:36:28.204Z,6.20
2018-06-18T04:37:28.043Z,6.30
2018-06-18T04:39:21.305Z,5.40
2018-06-18T04:40:21.217Z,5.60
2018-06-18T04:42:14.493Z,6.10
2018-06-18T04:43:14.431Z,5.60
2018-06-18T04:45:07.730Z,6.20
2018-06-18T04:46:07.644Z,6.00
2018-06-18T04:48:00.913Z,6.20
2018-06-18T04:49:00.850Z,5.70
2018-06-18T04:50:54.251Z,6.00
2018-06-18T04:51:54.061Z,5.90
2018-06-18T04:53:47.445Z,6.50
2018-06-18T04:54:47.277Z,6.60
2018-06-18T04:56:40.577Z,5.90
2018-06-18T04:57:40.491Z,5.80
2018-06-18T04:59:33.769Z,6.70
2018-06-18T05:00:33.704Z,7.50
2018-06-18T05:02:27.008Z,6.40
2018-06-18T05:03:26.918Z,6.20
2018-06-18T05:05:20.215Z,7.00
2018-06-18T05:06:20.134Z,6.80
2018-06-18T05:08:13.402Z,6.90
2018-06-18T05:09:13.338Z,6.40
2018-06-18T05:11:06.739Z,6.60
2018-06-18T05:12:06.554Z,6.30
2018-06-18T05:13:59.831Z,5.90
2018-06-18T05:14:59.768Z,6.40
2018-06-18T05:16:53.065Z,6.20
2018-06-18T05:17:52.983Z,6.30
2018-06-18T05:19:46.330Z,6.20
2018-06-18T05:20:46.344Z,6.20
2018-06-18T05:22:39.562Z,5.80
2018-06-18T05:23:39.485Z,5.90
2018-06-18T05:25:32.781Z,5.30
2018-06-18T05:26:32.699Z,6.10
2018-06-18T05:28:25.971Z,5.50
2018-06-18T05:29:25.905Z,5.20
2018-06-18T05:31:19.202Z,6.20
2018-06-18T05:32:19.120Z,5.30
2018-06-18T05:34:12.397Z,5.80
2018-06-18T05:35:12.335Z,5.50
2018-06-18T05:37:05.735Z,5.20
2018-06-18T05:38:05.549Z,5.50
2018-06-18T05:39:58.934Z,5.20
2018-06-18T05:40:58.763Z,5.50
2018-06-18T05:42:52.059Z,6.50
2018-06-18T05:43:51.980Z,6.20
2018-06-18T05:45:45.266Z,6.60
2018-06-18T05:46:45.186Z,5.20
2018-06-18T05:48:38.466Z,5.10
2018-06-18T05:49:38.402Z,5.80
2018-06-18T05:51:31.801Z,5.00
2018-06-18T05:52:31.620Z,5.90
2018-06-18T05:54:24.896Z,5.10
2018-06-18T05:55:24.836Z,5.60
2018-06-18T05:57:18.137Z,5.80
2018-06-18T05:58:18.055Z,5.90
2018-06-18T06:00:11.332Z,5.20
2018-06-18T06:01:11.270Z,5.70
2018-06-18T06:03:04.669Z,4.90
2018-06-18T06:04:04.487Z,5.10
2018-06-18T06:05:57.960Z,5.10
2018-06-18T06:06:57.705Z,5.80
2018-06-18T06:08:51.000Z,5.60
2018-06-18T06:09:50.919Z,5.10
2018-06-18T06:11:44.217Z,5.80
2018-06-18T06:12:44.137Z,5.90
2018-06-18T06:14:37.418Z,6.70
2018-06-18T06:15:37.354Z,6.60
2018-06-18T06:17:30.652Z,5.80
2018-06-18T06:18:30.574Z,5.90
2018-06-18T06:20:23.850Z,5.80
2018-06-18T06:21:23.789Z,6.00
2018-06-18T06:23:17.126Z,6.50
2018-06-18T06:24:17.008Z,6.70
2018-06-18T06:26:10.334Z,6.00
2018-06-18T06:27:10.271Z,6.10
2018-06-18T06:29:03.675Z,6.20
2018-06-18T06:30:03.489Z,5.80
2018-06-18T06:31:56.861Z,6.90
2018-06-18T06:32:56.685Z,6.60
2018-06-18T06:34:49.973Z,7.70
2018-06-18T06:35:49.893Z,7.00
2018-06-18T06:37:43.180Z,6.90
2018-06-18T06:38:43.100Z,6.20
2018-06-18T06:40:36.484Z,6.40
2018-06-18T06:41:36.307Z,6.10
2018-06-18T06:43:29.597Z,7.50
2018-06-18T06:44:29.516Z,7.20
2018-06-18T06:46:22.785Z,6.80
2018-06-18T06:47:22.723Z,6.50
2018-06-18T06:49:16.025Z,6.60
2018-06-18T06:50:15.947Z,6.30
2018-06-18T06:52:09.220Z,7.10
2018-06-18T06:53:09.165Z,6.70
2018-06-18T06:55:02.451Z,6.60
2018-06-18T06:56:02.413Z,6.10
2018-06-18T06:57:55.676Z,7.00
2018-06-18T06:58:55.581Z,7.10
2018-06-18T07:00:48.857Z,7.10
2018-06-18T07:01:48.791Z,6.30
2018-06-18T07:03:42.080Z,6.60
2018-06-18T07:04:42.000Z,6.40
2018-06-18T07:06:35.269Z,6.80
2018-06-18T07:07:35.212Z,6.60
2018-06-18T07:09:28.495Z,6.70
2018-06-18T07:10:28.416Z,6.00
2018-06-18T07:12:21.689Z,5.90
2018-06-18T07:13:21.648Z,6.60
2018-06-18T07:15:14.920Z,6.10
2018-06-18T07:16:14.841Z,6.30
2018-06-18T07:18:08.225Z,6.50
2018-06-18T07:19:08.051Z,6.30
2018-06-18T07:21:01.341Z,5.90
2018-06-18T07:22:01.262Z,5.90
2018-06-18T07:23:54.664Z,6.20
2018-06-18T07:24:54.472Z,6.20
2018-06-18T07:26:47.742Z,5.80
2018-06-18T07:27:47.682Z,6.20
2018-06-18T07:29:40.974Z,6.30
2018-06-18T07:30:40.958Z,5.80
2018-06-18T07:32:34.177Z,6.70
2018-06-18T07:33:34.115Z,6.60
2018-06-18T07:35:27.406Z,5.80
2018-06-18T07:36:27.330Z,6.00
2018-06-18T07:38:20.603Z,6.10
2018-06-18T07:39:20.546Z,5.70
2018-06-18T07:41:13.951Z,5.70
2018-06-18T07:42:13.760Z,6.20
2018-06-18T07:44:07.056Z,6.70
2018-06-18T07:45:07.011Z,5.70
2018-06-18T07:47:00.342Z,5.80
2018-06-18T07:48:00.283Z,5.80
2018-06-18T07:49:53.688Z,5.80
2018-06-18T07:50:53.498Z,5.80
2018-06-18T07:52:46.780Z,6.10
2018-06-18T07:53:46.734Z,6.10
2018-06-18T07:55:40.015Z,5.80
2018-06-18T07:56:39.937Z,6.40
2018-06-18T07:58:33.325Z,5.60
2018-06-18T07:59:33.151Z,5.90
2018-06-18T08:01:26.554Z,6.40
2018-06-18T08:02:26.377Z,5.60
2018-06-18T08:04:20.657Z,6.10
2018-06-18T08:05:20.599Z,6.00
2018-06-18T08:07:13.891Z,5.60
2018-06-18T08:08:13.814Z,6.00
2018-06-18T08:10:07.104Z,5.30
2018-06-18T08:11:07.028Z,5.10
2018-06-18T08:13:00.337Z,5.70
2018-06-18T08:14:00.288Z,5.40
2018-06-18T08:15:53.681Z,5.50
2018-06-18T08:16:53.491Z,4.90
2018-06-18T08:18:46.764Z,5.30
2018-06-18T08:19:46.706Z,5.70
2018-06-18T08:21:39.998Z,5.00
2018-06-18T08:22:39.921Z,4.70
2018-06-18T08:24:33.194Z,5.90
2018-06-18T08:25:33.135Z,5.30
2018-06-18T08:27:26.439Z,6.00
2018-06-18T08:28:26.363Z,5.30
2018-06-18T08:30:20.767Z,5.80
2018-06-18T08:31:20.577Z,5.70
2018-06-18T08:33:13.855Z,5.20
2018-06-18T08:34:13.794Z,4.80
2018-06-18T08:36:07.201Z,5.80
2018-06-18T08:37:07.004Z,5.10
2018-06-18T08:39:00.286Z,5.50
2018-06-18T08:40:00.229Z,5.30
2018-06-18T08:41:53.523Z,4.60
2018-06-18T08:42:53.447Z,5.20
2018-06-18T08:44:46.724Z,5.10
2018-06-18T08:45:46.664Z,5.40
2018-06-18T08:47:39.964Z,5.10
2018-06-18T08:48:39.889Z,5.00
2018-06-18T08:50:33.203Z,5.70
2018-06-18T08:51:33.111Z,4.90
2018-06-18T08:53:26.388Z,5.10
2018-06-18T08:54:26.331Z,5.10
2018-06-18T08:56:19.636Z,5.60
2018-06-18T08:57:19.555Z,5.50
2018-06-18T08:59:12.838Z,5.60
2018-06-18T09:00:12.778Z,5.80
2018-06-18T09:02:06.184Z,5.40
2018-06-18T09:03:06.002Z,5.60
2018-06-18T09:04:59.339Z,5.20
2018-06-18T09:05:59.283Z,5.80
2018-06-18T09:07:52.580Z,5.30
2018-06-18T09:08:52.503Z,6.30
2018-06-18T09:10:45.839Z,5.30
2018-06-18T09:11:45.725Z,5.50
2018-06-18T09:13:39.004Z,5.20
2018-06-18T09:14:38.949Z,5.50
2018-06-18T09:16:32.247Z,5.60
2018-06-18T09:17:32.173Z,5.40
2018-06-18T09:19:25.565Z,5.40
2018-06-18T09:20:25.397Z,5.90
2018-06-18T09:22:18.698Z,4.80
2018-06-18T09:23:18.629Z,4.80
2018-06-18T09:25:11.911Z,5.30
2018-06-18T09:26:11.857Z,5.30
2018-06-18T09:28:05.156Z,4.70
2018-06-18T09:29:05.083Z,4.70
2018-06-18T09:30:58.490Z,4.90
2018-06-18T09:31:58.316Z,5.30
2018-06-18T09:33:51.585Z,5.20
2018-06-18T09:34:51.527Z,5.30
2018-06-18T09:36:44.833Z,5.10
2018-06-18T09:37:44.758Z,5.20
2018-06-18T09:39:38.034Z,5.20
2018-06-18T09:40:37.978Z,5.10
2018-06-18T09:42:31.357Z,5.40
2018-06-18T09:43:31.282Z,5.30
2018-06-18T09:45:24.677Z,4.90
2018-06-18T09:46:24.513Z,4.90
2018-06-18T09:48:17.810Z,4.80
2018-06-18T09:49:17.734Z,4.50
2018-06-18T09:51:11.015Z,4.70
2018-06-18T09:52:10.955Z,4.60
2018-06-18T09:54:04.427Z,4.70
2018-06-18T09:55:04.175Z,4.40
2018-06-18T09:56:57.550Z,4.50
2018-06-18T09:57:57.395Z,4.70
2018-06-18T09:59:50.670Z,4.50
2018-06-18T10:00:50.613Z,4.10
2018-06-18T10:02:43.930Z,5.00
2018-06-18T10:03:43.832Z,4.50
2018-06-18T10:05:37.108Z,4.20
2018-06-18T10:06:37.050Z,4.50
2018-06-18T10:08:30.425Z,4.40
2018-06-18T10:09:30.273Z,3.80
2018-06-18T10:11:23.665Z,3.90
2018-06-18T10:12:23.496Z,4.00
2018-06-18T10:14:16.852Z,4.40
2018-06-18T10:15:16.712Z,4.40
2018-06-18T10:17:09.996Z,4.10
2018-06-18T10:18:09.939Z,4.40
2018-06-18T10:20:03.237Z,3.80
2018-06-18T10:21:03.159Z,3.90
2018-06-18T10:22:56.457Z,4.20
2018-06-18T10:23:56.381Z,4.80
2018-06-18T10:25:49.659Z,4.50
2018-06-18T10:26:49.626Z,4.10
2018-06-18T10:28:42.903Z,4.40
2018-06-18T10:29:42.830Z,4.10
2018-06-18T10:31:36.103Z,4.50
2018-06-18T10:32:36.045Z,4.60
2018-06-18T10:34:29.376Z,4.80
2018-06-18T10:35:29.368Z,4.40
2018-06-18T10:37:22.573Z,4.60
2018-06-18T10:38:22.510Z,4.70
2018-06-18T10:40:15.806Z,5.00
2018-06-18T10:41:15.731Z,5.10
2018-06-18T10:43:09.068Z,4.40
2018-06-18T10:44:08.974Z,4.30
2018-06-18T10:46:02.358Z,4.80
2018-06-18T10:47:02.173Z,4.50
2018-06-18T10:48:55.485Z,4.70
2018-06-18T10:49:55.399Z,4.70
2018-06-18T10:51:48.716Z,5.10
2018-06-18T10:52:48.662Z,5.10
2018-06-18T10:54:41.921Z,4.80
2018-06-18T10:55:41.843Z,5.00
2018-06-18T10:57:36.232Z,6.00
2018-06-18T10:58:36.065Z,5.50
2018-06-18T11:00:29.398Z,6.40
2018-06-18T11:01:29.400Z,5.70
2018-06-18T11:03:22.577Z,6.90
2018-06-18T11:04:22.516Z,6.30
2018-06-18T11:06:15.813Z,6.40
2018-06-18T11:07:15.739Z,6.00
2018-06-18T11:09:09.080Z,6.60
2018-06-18T11:10:09.024Z,6.50
2018-06-18T11:12:02.366Z,6.30
2018-06-18T11:13:02.180Z,6.50
2018-06-18T11:14:55.471Z,6.20
2018-06-18T11:15:55.468Z,6.40
2018-06-18T11:17:48.718Z,5.90
2018-06-18T11:18:48.658Z,6.20
2018-06-18T11:20:41.920Z,6.30
2018-06-18T11:21:41.839Z,5.90
2018-06-18T11:23:35.170Z,6.40
2018-06-18T11:24:35.158Z,6.40
2018-06-18T11:26:28.680Z,6.00
2018-06-18T11:27:28.369Z,6.00
2018-06-18T11:29:21.722Z,5.60
2018-06-18T11:30:21.552Z,5.70
2018-06-18T11:32:14.851Z,5.20
2018-06-18T11:33:14.772Z,5.30
2018-06-18T11:35:08.050Z,5.30
2018-06-18T11:36:07.995Z,5.00
2018-06-18T11:38:01.372Z,5.80
2018-06-18T11:39:01.297Z,6.10
2018-06-18T11:40:54.704Z,5.90
2018-06-18T11:41:54.549Z,5.70
2018-06-18T11:43:48.807Z,5.80
2018-06-18T11:44:48.750Z,6.10
2018-06-18T11:46:42.048Z,5.50
2018-06-18T11:47:41.977Z,5.50
2018-06-18T11:49:35.337Z,6.00
2018-06-18T11:50:35.284Z,5.50
2018-06-18T11:52:28.583Z,4.80
2018-06-18T11:53:28.509Z,4.60
2018-06-18T11:55:21.896Z,5.10
2018-06-18T11:56:21.744Z,4.80
2018-06-18T11:58:15.155Z,4.60
2018-06-18T11:59:14.953Z,4.70
2018-06-18T12:01:08.264Z,4.90
2018-06-18T12:02:08.171Z,4.90
2018-06-18T12:04:01.478Z,5.10
2018-06-18T12:05:01.392Z,4.90
2018-06-18T12:06:55.305Z,4.20
2018-06-18T12:07:54.614Z,4.60
2018-06-18T12:09:48.058Z,4.30
2018-06-18T12:10:47.833Z,4.60
2018-06-18T12:12:41.241Z,4.70
2018-06-18T12:13:41.055Z,4.30
2018-06-18T12:15:34.344Z,5.50
2018-06-18T12:16:34.301Z,4.80
2018-06-18T12:18:27.581Z,4.50
2018-06-18T12:19:27.506Z,4.80
2018-06-18T12:21:20.784Z,4.60
2018-06-18T12:22:20.784Z,4.60
2018-06-18T12:24:14.096Z,4.40
2018-06-18T12:25:13.955Z,4.50
2018-06-18T12:27:07.355Z,4.80
2018-06-18T12:28:07.182Z,5.00
2018-06-18T12:30:01.448Z,6.00
2018-06-18T12:31:01.388Z,4.10
2018-06-18T12:32:55.701Z,4.60
2018-06-18T12:33:55.614Z,4.30
2018-06-18T12:35:49.002Z,3.60
2018-06-18T12:36:48.851Z,3.80
2018-06-18T12:38:42.141Z,3.90
2018-06-18T12:39:42.064Z,4.30
2018-06-18T12:41:35.452Z,4.50
2018-06-18T12:42:35.286Z,4.60
2018-06-18T12:44:28.582Z,5.00
2018-06-18T12:45:28.504Z,4.80
2018-06-18T12:47:21.803Z,4.90
2018-06-18T12:48:21.729Z,4.50
2018-06-18T12:50:15.025Z,4.30
2018-06-18T12:51:14.949Z,4.10
2018-06-18T12:53:08.260Z,4.00
2018-06-18T12:54:08.178Z,3.80
2018-06-18T12:56:01.467Z,3.60
2018-06-18T12:57:01.404Z,4.10
2018-06-18T12:58:54.701Z,3.90
2018-06-18T12:59:54.624Z,3.60
2018-06-18T13:01:48.008Z,3.50
2018-06-18T13:02:47.839Z,3.60
2018-06-18T13:04:41.136Z,3.40
2018-06-18T13:05:41.062Z,3.70
2018-06-18T13:07:34.358Z,3.40
2018-06-18T13:08:34.282Z,3.50
2018-06-18T13:10:27.669Z,3.60
2018-06-18T13:11:27.500Z,3.50
2018-06-18T13:13:20.800Z,3.60
2018-06-18T13:14:20.720Z,4.00
2018-06-18T13:16:14.005Z,4.40
2018-06-18T13:17:13.957Z,3.80
2018-06-18T13:19:07.260Z,4.60
2018-06-18T13:20:07.169Z,4.00
2018-06-18T13:22:00.436Z,4.80
2018-06-18T13:23:00.381Z,5.00
2018-06-18T13:24:53.788Z,4.60
2018-06-18T13:25:53.599Z,4.90
2018-06-18T13:27:46.918Z,4.60
2018-06-18T13:28:46.822Z,4.60
2018-06-18T13:30:40.238Z,4.60
2018-06-18T13:31:40.090Z,4.70
2018-06-18T13:33:33.386Z,4.60
2018-06-18T13:34:33.313Z,5.00
2018-06-18T13:36:26.699Z,4.50
2018-06-18T13:37:26.535Z,4.50
2018-06-18T13:39:19.850Z,5.60
2018-06-18T13:40:19.758Z,5.70
2018-06-18T13:42:13.044Z,6.00
2018-06-18T13:43:12.979Z,6.40
2018-06-18T13:45:06.277Z,6.60
2018-06-18T13:46:06.194Z,6.50
2018-06-18T13:47:59.507Z,6.20
2018-06-18T13:48:59.423Z,6.30
2018-06-18T13:50:52.705Z,5.90
2018-06-18T13:51:52.646Z,5.90
2018-06-18T13:53:45.949Z,5.90
2018-06-18T13:54:45.873Z,6.10
2018-06-18T13:56:39.164Z,7.20
2018-06-18T13:57:39.106Z,6.10
2018-06-18T13:59:32.483Z,5.60
2018-06-18T14:00:32.399Z,5.50
2018-06-18T14:02:26.787Z,5.70
2018-06-18T14:03:26.628Z,5.40
2018-06-18T14:05:19.933Z,5.20
2018-06-18T14:06:19.852Z,5.40
2018-06-18T14:08:13.255Z,5.10
2018-06-18T14:09:13.065Z,5.60
2018-06-18T14:11:06.463Z,7.10
2018-06-18T14:12:06.404Z,6.10
2018-06-18T14:13:59.766Z,6.30
2018-06-18T14:14:59.637Z,6.40
2018-06-18T14:16:53.018Z,6.20
2018-06-18T14:17:52.846Z,5.80
2018-06-18T14:19:46.193Z,5.60
2018-06-18T14:20:46.066Z,5.30
2018-06-18T14:22:39.333Z,5.80
2018-06-18T14:23:39.284Z,5.30
2018-06-18T14:25:32.595Z,5.10
2018-06-18T14:26:32.520Z,5.10
2018-06-18T14:28:25.813Z,5.40
2018-06-18T14:29:25.735Z,5.00
2018-06-18T14:31:19.011Z,5.60
2018-06-18T14:32:18.952Z,5.40
2018-06-18T14:34:12.477Z,5.00
2018-06-18T14:35:12.399Z,5.60
2018-06-18T14:37:05.673Z,6.20
2018-06-18T14:38:05.614Z,6.20
2018-06-18T14:39:58.940Z,6.30
2018-06-18T14:40:58.838Z,6.00
2018-06-18T14:42:52.108Z,6.10
2018-06-18T14:43:52.051Z,5.70
2018-06-18T14:45:46.045Z,6.00
2018-06-18T14:46:45.268Z,5.80
2018-06-18T14:48:38.667Z,5.70
2018-06-18T14:49:38.489Z,5.90
2018-06-18T14:51:31.782Z,5.70
2018-06-18T14:52:31.749Z,5.40
2018-06-18T14:54:25.028Z,5.80
2018-06-18T14:55:24.928Z,5.40
2018-06-18T14:57:18.222Z,5.20
2018-06-18T14:58:18.144Z,5.20
2018-06-18T15:00:11.439Z,5.50
2018-06-18T15:01:11.364Z,5.50
2018-06-18T15:03:05.645Z,6.30
2018-06-18T15:04:05.662Z,6.50
2018-06-18T15:05:58.984Z,6.90
2018-06-18T15:06:58.795Z,6.50
2018-06-18T15:08:52.118Z,6.70
2018-06-18T15:09:52.009Z,7.20
2018-06-18T15:11:45.305Z,7.40
2018-06-18T15:12:45.280Z,7.70
2018-06-18T15:14:38.578Z,7.20
2018-06-18T15:15:38.500Z,7.40
2018-06-18T15:17:31.856Z,7.10
2018-06-18T15:18:31.675Z,7.50
2018-06-18T15:20:24.967Z,7.80
2018-06-18T15:21:24.892Z,7.20
2018-06-18T15:23:18.163Z,7.10
2018-06-18T15:24:18.104Z,7.00
2018-06-18T15:26:11.424Z,7.70
2018-06-18T15:27:11.349Z,6.90
2018-06-18T15:29:04.599Z,6.90
2018-06-18T15:30:04.550Z,7.10
2018-06-18T15:31:58.845Z,7.20
2018-06-18T15:32:58.763Z,6.90
2018-06-18T15:34:52.043Z,6.50
2018-06-18T15:35:51.983Z,6.20
2018-06-18T15:37:45.389Z,6.40
2018-06-18T15:38:45.205Z,6.00
2018-06-18T15:40:38.479Z,6.30
2018-06-18T15:41:38.421Z,6.50
2018-06-18T15:43:31.801Z,5.40
2018-06-18T15:44:31.642Z,5.70
2018-06-18T15:46:25.063Z,6.20
2018-06-18T15:47:24.869Z,5.90
2018-06-18T15:49:18.153Z,6.00
2018-06-18T15:50:18.096Z,6.20
2018-06-18T15:52:11.400Z,6.30
2018-06-18T15:53:11.325Z,6.10
2018-06-18T15:55:04.613Z,6.80
2018-06-18T15:56:04.553Z,6.10
2018-06-18T15:57:57.963Z,6.40
2018-06-18T15:58:57.773Z,6.80
2018-06-18T16:00:51.049Z,6.40
2018-06-18T16:01:50.993Z,6.30
2018-06-18T16:03:44.286Z,6.30
2018-06-18T16:04:44.210Z,5.80
2018-06-18T16:06:37.501Z,6.30
2018-06-18T16:07:37.443Z,6.40
2018-06-18T16:09:30.756Z,6.80
2018-06-18T16:10:30.673Z,6.70
2018-06-18T16:12:23.976Z,6.80
2018-06-18T16:13:23.898Z,6.90
2018-06-18T16:15:17.176Z,7.00
2018-06-18T16:16:17.115Z,7.60
2018-06-18T16:18:10.412Z,7.30
2018-06-18T16:19:10.335Z,7.20
2018-06-18T16:21:03.723Z,7.70
2018-06-18T16:22:03.553Z,8.20
2018-06-18T16:23:56.848Z,8.50
2018-06-18T16:24:56.819Z,8.30
2018-06-18T16:26:50.057Z,9.00
2018-06-18T16:27:49.998Z,8.90
2018-06-18T16:29:43.300Z,9.00
2018-06-18T16:30:43.224Z,8.50
2018-06-18T16:32:36.498Z,8.90
2018-06-18T16:33:36.439Z,8.90
2018-06-18T16:35:29.730Z,9.10
2018-06-18T16:36:29.656Z,9.20
2018-06-18T16:38:22.951Z,7.00
2018-06-18T16:39:22.873Z,8.40
2018-06-18T16:41:16.176Z,8.80
2018-06-18T16:42:16.113Z,9.00
2018-06-18T16:44:09.415Z,8.90
2018-06-18T16:45:09.340Z,8.60
2018-06-18T16:47:02.627Z,8.10
2018-06-18T16:48:02.566Z,8.20
2018-06-18T16:49:55.877Z,7.50
2018-06-18T16:50:55.796Z,7.10
2018-06-18T16:52:49.083Z,8.70
2018-06-18T16:53:49.024Z,7.60
2018-06-18T16:55:42.483Z,8.00
2018-06-18T16:56:42.404Z,8.40
2018-06-18T16:58:35.710Z,8.10
2018-06-18T16:59:35.631Z,8.30
2018-06-18T17:01:29.020Z,8.30
2018-06-18T17:02:28.879Z,8.50
2018-06-18T17:04:22.184Z,8.00
2018-06-18T17:05:22.110Z,8.30
2018-06-18T17:07:15.399Z,8.70
2018-06-18T17:08:15.341Z,8.10
2018-06-18T17:10:08.648Z,8.80
2018-06-18T17:11:08.569Z,9.00
2018-06-18T17:13:01.856Z,8.10
2018-06-18T17:14:01.797Z,8.50
2018-06-18T17:15:55.203Z,8.80
2018-06-18T17:16:55.028Z,9.10
2018-06-18T17:18:48.457Z,9.00
2018-06-18T17:19:48.400Z,8.70
2018-06-18T17:21:41.706Z,9.00
2018-06-18T17:22:41.632Z,8.90
2018-06-18T17:24:34.980Z,8.40
2018-06-18T17:25:34.897Z,8.60
2018-06-18T17:27:28.183Z,8.80
2018-06-18T17:28:28.126Z,8.30
2018-06-18T17:30:21.428Z,8.70
2018-06-18T17:31:21.350Z,8.00
2018-06-18T17:33:14.637Z,8.20
2018-06-18T17:34:14.581Z,8.50
2018-06-18T17:36:07.883Z,8.20
2018-06-18T17:37:07.809Z,8.20
2018-06-18T17:39:01.093Z,8.30
2018-06-18T17:40:01.037Z,8.20
2018-06-18T17:41:54.491Z,8.60
2018-06-18T17:42:54.412Z,8.50
2018-06-18T17:44:47.700Z,8.90
2018-06-18T17:45:47.623Z,8.10
2018-06-18T17:47:40.909Z,8.30
2018-06-18T17:48:40.846Z,8.00
2018-06-18T17:50:34.152Z,8.60
2018-06-18T17:51:34.075Z,8.00
2018-06-18T17:53:27.464Z,8.00
2018-06-18T17:54:27.405Z,8.00
2018-06-18T17:56:20.737Z,7.80
2018-06-18T17:57:20.632Z,7.50
2018-06-18T17:59:13.918Z,8.00
2018-06-18T18:00:13.860Z,8.10
2018-06-18T18:02:07.165Z,8.20
2018-06-18T18:03:07.090Z,7.80
2018-06-18T18:05:00.374Z,8.20
2018-06-18T18:06:00.320Z,7.80
2018-06-18T18:07:53.613Z,7.40
2018-06-18T18:08:53.536Z,7.30
2018-06-18T18:10:46.840Z,7.50
2018-06-18T18:11:46.762Z,7.70
2018-06-18T18:13:40.062Z,7.80
2018-06-18T18:14:39.994Z,7.90
2018-06-18T18:16:33.482Z,10.10
2018-06-18T18:17:33.405Z,8.50
2018-06-18T18:19:26.689Z,7.80
2018-06-18T18:20:26.636Z,7.80
2018-06-18T18:22:19.940Z,7.50
2018-06-18T18:23:19.865Z,7.80
2018-06-18T18:25:13.150Z,7.70
2018-06-18T18:26:13.091Z,7.70
2018-06-18T18:28:06.397Z,7.70
2018-06-18T18:29:06.320Z,7.70
2018-06-18T18:30:59.625Z,7.80
2018-06-18T18:31:59.546Z,7.50
2018-06-18T18:33:52.847Z,7.40
2018-06-18T18:34:52.774Z,7.80
2018-06-18T18:36:46.076Z,7.60
2018-06-18T18:37:45.999Z,7.80
2018-06-18T18:39:39.457Z,7.50
2018-06-18T18:40:39.400Z,8.00
2018-06-18T18:42:32.702Z,7.70
2018-06-18T18:43:32.625Z,7.70
2018-06-18T18:45:25.912Z,7.90
2018-06-18T18:46:25.852Z,7.60
2018-06-18T18:48:19.145Z,8.10
2018-06-18T18:49:19.067Z,8.00
2018-06-18T18:51:12.393Z,8.20
2018-06-18T18:52:12.296Z,7.60
2018-06-18T18:54:05.604Z,8.30
2018-06-18T18:55:05.520Z,7.80
2018-06-18T18:56:58.831Z,7.90
2018-06-18T18:57:58.749Z,8.00
2018-06-18T18:59:52.035Z,7.80
2018-06-18T19:00:51.977Z,7.40
2018-06-18T19:02:45.484Z,7.50
2018-06-18T19:03:45.416Z,7.80
2018-06-18T19:05:38.690Z,7.90
2018-06-18T19:06:38.638Z,8.30
2018-06-18T19:08:31.929Z,8.70
2018-06-18T19:09:31.851Z,7.40
2018-06-18T19:11:25.154Z,7.70
2018-06-18T19:12:25.074Z,7.50